createdAt,value
2023-05-05T00:02:07.762Z,9.99
2023-05-05T00:07:06.656Z,9.88
2023-05-05T00:12:05.857Z,9.43
2023-05-05T00:17:05.297Z,9.83
2023-05-05T00:22:04.183Z,9.92
2023-05-05T00:27:03.476Z,10.00
2023-05-05T00:32:02.340Z,9.88
2023-05-05T00:37:01.657Z,9.72
2023-05-05T00:42:00.634Z,9.74
2023-05-05T00:46:59.394Z,9.68
2023-05-05T00:51:58.994Z,9.61
2023-05-05T00:56:57.851Z,9.22
2023-05-05T01:01:57.075Z,9.23
2023-05-05T01:07:14.801Z,9.21
2023-05-05T01:12:33.822Z,8.98
2023-05-05T01:17:42.657Z,8.92
2023-05-05T01:22:53.223Z,8.95
2023-05-05T01:28:18.361Z,8.99
2023-05-05T01:33:24.780Z,8.82
2023-05-05T01:38:32.410Z,9.01
2023-05-05T01:43:35.754Z,9.17
2023-05-05T01:48:35.063Z,9.33
2023-05-05T01:53:35.347Z,9.50
2023-05-05T01:58:35.615Z,9.52
2023-05-05T02:03:37.767Z,9.48
2023-05-05T02:08:38.179Z,9.35
2023-05-05T02:13:39.484Z,9.30
2023-05-05T02:18:38.921Z,9.27
2023-05-05T02:23:38.623Z,9.31
2023-05-05T02:28:48.834Z,9.27
2023-05-05T02:33:49.585Z,9.51
2023-05-05T02:38:53.466Z,9.41
2023-05-05T02:43:55.252Z,9.26
2023-05-05T02:48:54.844Z,9.34
2023-05-05T02:53:53.745Z,9.42
2023-05-05T02:58:57.072Z,9.38
2023-05-05T03:04:11.600Z,9.30
2023-05-05T03:09:25.793Z,9.56
2023-05-05T03:14:33.255Z,9.37
2023-05-05T03:19:34.592Z,9.26
2023-05-05T03:24:33.556Z,9.28
2023-05-05T03:29:37.253Z,9.14
2023-05-05T03:34:40.018Z,9.01
2023-05-05T03:39:38.797Z,8.94
2023-05-05T03:44:39.092Z,8.86
2023-05-05T03:49:38.424Z,8.92
2023-05-05T03:54:37.651Z,8.89
2023-05-05T03:59:36.497Z,9.23
2023-05-05T04:04:35.786Z,9.20
2023-05-05T04:09:35.108Z,9.51
2023-05-05T04:14:34.125Z,9.42
2023-05-05T04:19:33.840Z,9.47
2023-05-05T04:24:34.690Z,12.57
2023-05-05T04:29:33.922Z,13.43
2023-05-05T04:34:33.297Z,13.92
2023-05-05T04:39:32.768Z,13.86
2023-05-05T04:44:32.213Z,13.80
2023-05-05T04:49:31.634Z,13.80
2023-05-05T04:54:30.704Z,13.74
2023-05-05T04:59:30.064Z,12.06
2023-05-05T05:04:29.267Z,11.41
2023-05-05T05:09:28.252Z,11.05
2023-05-05T05:14:28.216Z,11.07
2023-05-05T05:19:27.255Z,11.05
2023-05-05T05:24:26.320Z,10.97
2023-05-05T05:29:27.147Z,10.90
2023-05-05T05:34:26.917Z,10.81
2023-05-05T05:39:26.695Z,10.88
2023-05-05T05:44:25.938Z,10.93
2023-05-05T05:49:24.698Z,11.47
2023-05-05T05:54:24.026Z,12.10
2023-05-05T05:59:23.079Z,12.37
2023-05-05T06:04:22.105Z,12.38
2023-05-05T06:09:21.023Z,12.07
2023-05-05T06:14:20.235Z,12.23
2023-05-05T06:19:20.110Z,12.87
2023-05-05T06:24:19.009Z,13.44
2023-05-05T06:29:18.421Z,13.89
2023-05-05T06:34:18.354Z,14.27
2023-05-05T06:39:17.107Z,14.35
2023-05-05T06:44:16.134Z,14.46
2023-05-05T06:49:14.995Z,14.71
2023-05-05T06:54:13.925Z,15.21
2023-05-05T06:59:12.653Z,15.52
2023-05-05T07:04:11.822Z,15.76
2023-05-05T07:09:10.806Z,15.83
2023-05-05T07:14:09.555Z,16.05
2023-05-05T07:19:08.586Z,16.50
2023-05-05T07:24:07.486Z,16.51
2023-05-05T07:29:07.186Z,16.64
2023-05-05T07:34:06.277Z,17.08
2023-05-05T07:39:07.598Z,17.14
2023-05-05T07:44:06.441Z,17.23
2023-05-05T07:49:05.220Z,17.42
2023-05-05T07:54:04.466Z,17.57
2023-05-05T07:59:03.661Z,17.75
2023-05-05T08:04:02.409Z,18.06
2023-05-05T08:09:01.918Z,18.27
2023-05-05T08:14:00.979Z,18.66
2023-05-05T08:18:59.848Z,18.99
2023-05-05T08:23:58.712Z,18.99
2023-05-05T08:29:00.799Z,19.40
2023-05-05T08:33:59.624Z,19.69
2023-05-05T08:38:58.653Z,19.80
2023-05-05T08:43:57.478Z,19.73
2023-05-05T08:48:57.746Z,19.87
2023-05-05T08:54:06.572Z,20.08
2023-05-05T08:59:05.573Z,20.46
2023-05-05T09:04:05.157Z,20.52
2023-05-05T09:09:04.162Z,20.77
2023-05-05T09:14:03.030Z,20.79
2023-05-05T09:19:03.515Z,21.09
2023-05-05T09:24:11.204Z,21.08
2023-05-05T09:29:10.193Z,21.32
2023-05-05T09:34:16.606Z,21.54
2023-05-05T09:39:20.212Z,21.61
2023-05-05T09:44:34.681Z,21.69
2023-05-05T09:49:33.760Z,21.97
2023-05-05T09:54:34.744Z,21.58
2023-05-05T09:59:33.676Z,21.73
2023-05-05T10:04:32.594Z,21.82
2023-05-05T10:09:32.879Z,21.79
2023-05-05T10:14:34.112Z,21.94
2023-05-05T10:19:35.898Z,22.11
2023-05-05T10:24:40.078Z,22.00
2023-05-05T10:29:40.659Z,22.37
2023-05-05T10:34:53.447Z,22.49
2023-05-05T10:39:53.392Z,22.45
2023-05-05T10:44:52.327Z,22.30
2023-05-05T10:50:04.210Z,22.24
2023-05-05T10:55:13.163Z,22.35
2023-05-05T11:00:41.288Z,22.63
2023-05-05T11:06:06.225Z,22.83
2023-05-05T11:11:06.100Z,22.98
2023-05-05T11:16:05.671Z,22.73
2023-05-05T11:21:15.488Z,22.98
2023-05-05T11:26:15.643Z,22.98
2023-05-05T11:31:18.916Z,23.17
2023-05-05T11:36:19.981Z,23.18
2023-05-05T11:41:40.612Z,23.20
2023-05-05T11:46:41.071Z,23.05
2023-05-05T11:51:40.130Z,23.14
2023-05-05T11:56:50.568Z,22.95
2023-05-05T12:01:49.284Z,22.67
2023-05-05T12:06:49.246Z,22.70
2023-05-05T12:12:00.927Z,22.75
2023-05-05T12:17:09.720Z,22.41
2023-05-05T12:22:08.577Z,22.61
2023-05-05T12:27:11.794Z,22.98
2023-05-05T12:32:23.588Z,23.08
2023-05-05T12:37:26.345Z,23.26
2023-05-05T12:42:25.380Z,23.53
2023-05-05T12:47:32.533Z,23.38
2023-05-05T12:52:44.939Z,23.52
2023-05-05T12:58:04.690Z,24.07
2023-05-05T13:03:04.940Z,23.73
2023-05-05T13:08:04.264Z,23.59
2023-05-05T13:13:04.932Z,23.65
2023-05-05T13:18:03.947Z,24.05
2023-05-05T13:23:02.681Z,24.40
2023-05-05T13:28:01.461Z,24.38
2023-05-05T13:33:00.283Z,23.88
2023-05-05T13:37:59.141Z,23.91
2023-05-05T13:42:58.270Z,23.54
2023-05-05T13:47:57.295Z,23.19
2023-05-05T13:52:56.410Z,23.05
2023-05-05T13:57:55.287Z,22.95
2023-05-05T14:02:54.308Z,23.02
2023-05-05T14:07:54.427Z,23.10
2023-05-05T14:12:56.646Z,23.10
2023-05-05T14:17:56.177Z,23.22
2023-05-05T14:22:55.273Z,23.46
2023-05-05T14:27:55.792Z,23.31
2023-05-05T14:32:54.598Z,23.07
2023-05-05T14:37:53.415Z,23.31
2023-05-05T14:42:52.283Z,22.87
2023-05-05T14:47:51.169Z,23.06
2023-05-05T14:52:49.978Z,23.17
2023-05-05T14:57:48.917Z,23.08
2023-05-05T15:02:48.420Z,23.25
2023-05-05T15:07:47.787Z,23.09
2023-05-05T15:12:46.773Z,23.07
2023-05-05T15:17:45.847Z,23.11
2023-05-05T15:22:44.760Z,23.15
2023-05-05T15:27:43.621Z,23.10
2023-05-05T15:32:42.596Z,22.90
2023-05-05T15:37:42.605Z,22.88
2023-05-05T15:42:41.582Z,22.95
2023-05-05T15:47:40.842Z,22.96
2023-05-05T15:52:39.931Z,22.88
2023-05-05T15:57:41.721Z,22.56
2023-05-05T16:02:40.710Z,22.35
2023-05-05T16:07:39.736Z,22.20
2023-05-05T16:12:38.598Z,22.24
2023-05-05T16:17:37.813Z,22.42
2023-05-05T16:22:37.055Z,22.33
2023-05-05T16:27:36.003Z,22.36
2023-05-05T16:32:34.956Z,22.17
2023-05-05T16:37:33.811Z,22.15
2023-05-05T16:42:32.513Z,22.08
2023-05-05T16:47:31.366Z,21.86
2023-05-05T16:52:30.341Z,21.70
2023-05-05T16:57:29.491Z,21.57
2023-05-05T17:02:28.590Z,21.41
2023-05-05T17:07:27.796Z,21.37
2023-05-05T17:12:26.588Z,21.22
2023-05-05T17:17:25.464Z,21.27
2023-05-05T17:22:24.382Z,21.12
2023-05-05T17:27:23.205Z,21.04
2023-05-05T17:32:22.340Z,20.84
2023-05-05T17:37:21.236Z,20.82
2023-05-05T17:42:22.996Z,20.53
2023-05-05T17:47:22.572Z,20.63
2023-05-05T17:52:22.688Z,20.59
2023-05-05T17:57:21.514Z,20.48
2023-05-05T18:02:20.500Z,20.47
2023-05-05T18:07:19.654Z,20.27
2023-05-05T18:12:18.434Z,20.28
2023-05-05T18:17:17.162Z,19.97
2023-05-05T18:22:16.039Z,20.00
2023-05-05T18:27:14.935Z,19.75
2023-05-05T18:32:13.771Z,19.65
2023-05-05T18:37:12.683Z,19.66
2023-05-05T18:42:13.004Z,19.55
2023-05-05T18:47:12.034Z,19.59
2023-05-05T18:52:10.888Z,19.37
2023-05-05T18:57:09.979Z,19.09
2023-05-05T19:02:09.073Z,19.17
2023-05-05T19:07:07.886Z,19.31
2023-05-05T19:12:06.865Z,19.11
2023-05-05T19:17:05.938Z,19.03
2023-05-05T19:22:04.852Z,18.88
2023-05-05T19:27:04.098Z,18.65
2023-05-05T19:32:02.921Z,18.62
2023-05-05T19:37:01.878Z,18.72
2023-05-05T19:42:01.133Z,18.84
2023-05-05T19:47:00.126Z,18.66
2023-05-05T19:51:59.100Z,18.55
2023-05-05T19:56:57.904Z,18.72
2023-05-05T20:01:56.940Z,18.52
2023-05-05T20:06:55.721Z,18.62
2023-05-05T20:11:55.520Z,18.50
2023-05-05T20:16:54.560Z,18.49
2023-05-05T20:21:53.402Z,18.51
2023-05-05T20:26:52.191Z,18.41
2023-05-05T20:31:50.952Z,18.27
2023-05-05T20:36:49.788Z,18.30
2023-05-05T20:41:49.045Z,18.27
2023-05-05T20:46:47.837Z,17.84
2023-05-05T20:51:46.759Z,17.89
2023-05-05T20:56:45.592Z,17.74
2023-05-05T21:01:44.418Z,17.81
2023-05-05T21:06:43.195Z,17.73
2023-05-05T21:11:43.628Z,17.92
2023-05-05T21:16:42.879Z,17.67
2023-05-05T21:21:41.771Z,17.67
2023-05-05T21:26:44.344Z,17.68
2023-05-05T21:31:43.070Z,17.57
2023-05-05T21:36:41.803Z,17.69
2023-05-05T21:41:40.657Z,17.56
2023-05-05T21:46:39.640Z,17.36
2023-05-05T21:51:38.464Z,17.22
2023-05-05T21:56:37.526Z,17.24
2023-05-05T22:01:36.963Z,17.13
2023-05-05T22:06:35.765Z,16.92
2023-05-05T22:11:34.596Z,16.87
2023-05-05T22:16:33.416Z,16.93
2023-05-05T22:21:32.398Z,16.91
2023-05-05T22:26:31.178Z,16.99
2023-05-05T22:31:30.829Z,16.76
2023-05-05T22:36:29.738Z,16.83
2023-05-05T22:41:28.475Z,16.72
2023-05-05T22:46:27.306Z,16.60
2023-05-05T22:51:26.141Z,16.52
2023-05-05T22:56:24.993Z,16.61
2023-05-05T23:01:24.054Z,16.36
2023-05-05T23:06:22.856Z,16.12
2023-05-05T23:11:21.722Z,16.14
2023-05-05T23:16:20.711Z,15.81
2023-05-05T23:21:19.682Z,15.65
2023-05-05T23:26:18.422Z,15.69
2023-05-05T23:31:17.388Z,15.01
2023-05-05T23:36:16.281Z,15.16
2023-05-05T23:41:15.060Z,14.95
2023-05-05T23:46:13.991Z,15.10
2023-05-05T23:51:12.834Z,14.88
2023-05-05T23:56:11.998Z,14.81
